createdAt,value
2019-03-01T00:01:12.116Z,2.53
2019-03-01T00:03:40.568Z,3.10
2019-03-01T00:06:21.698Z,3.13
2019-03-01T00:09:01.918Z,3.03
2019-03-01T00:11:50.338Z,2.93
2019-03-01T00:14:49.919Z,3.20
2019-03-01T00:17:29.916Z,2.90
2019-03-01T00:20:19.640Z,2.90
2019-03-01T00:23:00.106Z,3.00
2019-03-01T00:25:49.989Z,3.10
2019-03-01T00:28:21.674Z,3.17
2019-03-01T00:30:59.400Z,3.03
2019-03-01T00:33:48.907Z,3.80
2019-03-01T00:36:32.015Z,3.47
2019-03-01T00:39:35.676Z,3.47
2019-03-01T00:42:10.138Z,3.43
2019-03-01T00:44:43.693Z,3.27
2019-03-01T00:47:12.374Z,4.17
2019-03-01T00:49:41.062Z,3.57
2019-03-01T00:52:10.119Z,3.57
2019-03-01T00:54:38.704Z,3.43
2019-03-01T00:57:07.678Z,3.37
2019-03-01T00:59:36.139Z,3.30
2019-03-01T01:02:05.016Z,3.83
2019-03-01T01:04:33.518Z,3.50
2019-03-01T01:07:02.172Z,3.63
2019-03-01T01:09:30.622Z,3.10
2019-03-01T01:11:59.274Z,3.60
2019-03-01T01:14:27.752Z,3.17
2019-03-01T01:16:56.272Z,3.27
2019-03-01T01:19:24.784Z,3.37
2019-03-01T01:21:53.324Z,3.33
2019-03-01T01:24:21.775Z,3.10
2019-03-01T01:26:50.294Z,3.40
2019-03-01T01:29:18.761Z,3.13
2019-03-01T01:31:47.275Z,3.03
2019-03-01T01:34:16.762Z,3.30
2019-03-01T01:36:45.326Z,3.20
2019-03-01T01:39:13.767Z,3.23
2019-03-01T01:41:42.206Z,3.17
2019-03-01T01:44:10.817Z,2.73
2019-03-01T01:46:39.270Z,3.00
2019-03-01T01:49:07.777Z,2.97
2019-03-01T01:51:36.248Z,2.50
2019-03-01T01:54:04.854Z,2.23
2019-03-01T01:56:33.300Z,2.80
2019-03-01T01:59:01.885Z,2.90
2019-03-01T02:01:30.326Z,2.20
2019-03-01T02:03:58.775Z,2.30
2019-03-01T02:06:28.494Z,2.83
2019-03-01T02:08:57.011Z,2.30
2019-03-01T02:11:25.527Z,2.30
2019-03-01T02:13:54.067Z,2.20
2019-03-01T02:16:22.506Z,2.20
2019-03-01T02:18:57.546Z,2.47
2019-03-01T02:21:21.142Z,2.10
2019-03-01T02:23:49.582Z,2.33
2019-03-01T02:26:18.104Z,2.90
2019-03-01T02:28:46.996Z,3.10
2019-03-01T02:31:15.514Z,3.13
2019-03-01T02:33:43.964Z,3.40
2019-03-01T02:36:12.583Z,3.27
2019-03-01T02:38:41.029Z,3.90
2019-03-01T02:41:09.553Z,3.83
2019-03-01T02:43:38.119Z,3.77
2019-03-01T02:46:06.642Z,2.87
2019-03-01T02:48:35.163Z,3.60
2019-03-01T02:51:03.965Z,3.50
2019-03-01T02:53:32.403Z,3.20
2019-03-01T02:56:00.897Z,3.43
2019-03-01T02:58:29.646Z,3.27
2019-03-01T03:00:58.303Z,4.37
2019-03-01T03:03:26.935Z,3.33
2019-03-01T03:06:15.371Z,3.27
2019-03-01T03:08:43.935Z,3.40
2019-03-01T03:11:12.573Z,4.00
2019-03-01T03:13:41.154Z,3.90
2019-03-01T03:16:09.977Z,4.00
2019-03-01T03:18:38.590Z,3.30
2019-03-01T03:21:07.320Z,3.67
2019-03-01T03:23:35.888Z,3.77
2019-03-01T03:26:04.575Z,4.03
2019-03-01T03:28:33.162Z,3.43
2019-03-01T03:31:01.752Z,3.47
2019-03-01T03:33:30.289Z,3.00
2019-03-01T03:35:58.894Z,3.70
2019-03-01T03:38:27.422Z,3.00
2019-03-01T03:40:55.984Z,3.43
2019-03-01T03:43:24.570Z,2.77
2019-03-01T03:45:53.262Z,3.13
2019-03-01T03:48:21.818Z,3.10
2019-03-01T03:50:50.616Z,3.10
2019-03-01T03:53:19.233Z,3.17
2019-03-01T03:55:47.858Z,2.93
2019-03-01T03:58:16.662Z,3.00
2019-03-01T04:00:45.359Z,3.33
2019-03-01T04:03:14.053Z,3.23
2019-03-01T04:05:42.721Z,2.67
2019-03-01T04:08:11.279Z,3.07
2019-03-01T04:10:39.833Z,3.27
2019-03-01T04:13:08.602Z,3.83
2019-03-01T04:15:37.157Z,3.60
2019-03-01T04:18:05.784Z,4.00
2019-03-01T04:20:34.369Z,4.10
2019-03-01T04:23:02.946Z,3.50
2019-03-01T04:25:31.579Z,4.27
2019-03-01T04:28:00.237Z,3.90
2019-03-01T04:30:28.858Z,3.50
2019-03-01T04:32:57.410Z,4.00
2019-03-01T04:35:26.005Z,4.10
2019-03-01T04:37:54.585Z,4.07
2019-03-01T04:40:23.193Z,4.10
2019-03-01T04:42:51.785Z,3.60
2019-03-01T04:45:20.398Z,3.77
2019-03-01T04:47:49.169Z,3.60
2019-03-01T04:50:17.858Z,3.87
2019-03-01T04:52:46.417Z,3.93
2019-03-01T04:55:17.574Z,4.30
2019-03-01T04:57:46.722Z,3.73
2019-03-01T05:00:17.784Z,3.93
2019-03-01T05:02:46.414Z,4.10
2019-03-01T05:05:16.008Z,4.40
2019-03-01T05:07:44.705Z,4.10
2019-03-01T05:10:14.398Z,4.90
2019-03-01T05:12:43.150Z,4.40
2019-03-01T05:15:22.793Z,4.40
2019-03-01T05:17:51.446Z,4.30
2019-03-01T05:20:20.082Z,4.20
2019-03-01T05:22:48.702Z,4.07
2019-03-01T05:25:17.371Z,4.30
2019-03-01T05:27:45.921Z,3.90
2019-03-01T05:30:16.678Z,3.97
2019-03-01T05:32:45.334Z,3.60
2019-03-01T05:35:14.726Z,3.77
2019-03-01T05:37:43.345Z,4.40
2019-03-01T05:40:16.076Z,3.93
2019-03-01T05:42:44.781Z,4.10
2019-03-01T05:45:16.347Z,4.37
2019-03-01T05:47:45.019Z,3.77
2019-03-01T05:50:15.015Z,4.00
2019-03-01T05:52:43.645Z,3.10
2019-03-01T05:55:13.177Z,3.30
2019-03-01T05:58:18.342Z,3.53
2019-03-01T06:00:47.594Z,2.50
2019-03-01T06:03:41.789Z,2.60
2019-03-01T06:06:15.971Z,2.60
2019-03-01T06:09:04.814Z,2.53
2019-03-01T06:11:39.369Z,2.43
2019-03-01T06:14:13.630Z,2.00
2019-03-01T06:16:54.442Z,2.27
2019-03-01T06:19:31.590Z,2.23
2019-03-01T06:22:25.950Z,2.33
2019-03-01T06:25:12.573Z,2.50
2019-03-01T06:27:59.258Z,2.50
2019-03-01T06:30:55.065Z,2.80
2019-03-01T06:33:29.908Z,2.90
2019-03-01T06:36:13.265Z,2.70
2019-03-01T06:39:04.758Z,2.30
2019-03-01T06:41:45.401Z,2.47
2019-03-01T06:44:20.277Z,2.63
2019-03-01T06:46:53.552Z,2.60
2019-03-01T06:49:23.743Z,2.70
2019-03-01T06:51:52.405Z,2.50
2019-03-01T06:54:21.030Z,2.77
2019-03-01T06:56:49.586Z,2.83
2019-03-01T06:59:18.227Z,3.30
2019-03-01T07:01:46.838Z,2.60
2019-03-01T07:04:15.661Z,3.20
2019-03-01T07:06:44.381Z,2.80
2019-03-01T07:09:13.074Z,2.93
2019-03-01T07:11:41.631Z,2.87
2019-03-01T07:14:10.498Z,2.90
2019-03-01T07:16:39.125Z,2.80
2019-03-01T07:19:07.681Z,3.00
2019-03-01T07:21:36.409Z,3.73
2019-03-01T07:24:05.313Z,3.87
2019-03-01T07:26:34.071Z,4.40
2019-03-01T07:29:02.662Z,4.30
2019-03-01T07:31:31.230Z,4.37
2019-03-01T07:33:59.789Z,4.00
2019-03-01T07:36:28.374Z,4.27
2019-03-01T07:38:56.933Z,4.30
2019-03-01T07:41:25.566Z,4.57
2019-03-01T07:43:54.179Z,4.90
2019-03-01T07:46:22.809Z,5.57
2019-03-01T07:48:51.438Z,6.07
2019-03-01T07:51:20.039Z,6.90
2019-03-01T07:53:48.597Z,6.80
2019-03-01T07:56:17.223Z,6.13
2019-03-01T07:58:48.243Z,5.90
2019-03-01T08:01:16.941Z,5.70
2019-03-01T08:03:49.819Z,6.13
2019-03-01T08:06:16.057Z,6.07
2019-03-01T08:08:44.618Z,6.77
2019-03-01T08:11:13.446Z,5.70
2019-03-01T08:13:42.157Z,6.93
2019-03-01T08:16:10.793Z,6.80
2019-03-01T08:18:40.088Z,7.07
2019-03-01T08:21:10.393Z,7.00
2019-03-01T08:23:39.934Z,7.83
2019-03-01T08:26:08.562Z,7.73
2019-03-01T08:28:37.164Z,8.07
2019-03-01T08:31:05.858Z,8.00
2019-03-01T08:33:34.429Z,7.47
2019-03-01T08:36:05.728Z,7.10
2019-03-01T08:38:33.510Z,5.33
2019-03-01T08:41:02.058Z,6.33
2019-03-01T08:43:30.846Z,3.87
2019-03-01T08:45:59.465Z,2.97
2019-03-01T08:48:30.537Z,3.30
2019-03-01T08:50:58.584Z,5.57
2019-03-01T08:53:27.233Z,2.67
2019-03-01T08:55:55.795Z,2.87
2019-03-01T08:58:24.498Z,2.80
2019-03-01T09:00:59.618Z,2.73
2019-03-01T09:03:26.914Z,2.50
2019-03-01T09:05:55.501Z,2.00
2019-03-01T09:08:26.326Z,1.80
2019-03-01T09:10:54.404Z,2.17
2019-03-01T09:13:23.058Z,2.27
2019-03-01T09:15:51.620Z,2.20
2019-03-01T09:18:20.250Z,2.30
2019-03-01T09:20:48.913Z,2.00
2019-03-01T09:23:24.240Z,2.60
2019-03-01T09:25:49.711Z,2.33
2019-03-01T09:28:18.166Z,2.33
2019-03-01T09:30:46.732Z,2.63
2019-03-01T09:33:17.168Z,2.50
2019-03-01T09:35:47.321Z,2.90
2019-03-01T09:38:15.947Z,2.90
2019-03-01T09:40:44.500Z,2.60
2019-03-01T09:43:13.162Z,3.00
2019-03-01T09:45:41.950Z,2.77
2019-03-01T09:48:12.008Z,2.90
2019-03-01T09:50:40.888Z,2.63
2019-03-01T09:53:09.509Z,2.90
2019-03-01T09:55:38.599Z,2.90
2019-03-01T09:58:08.459Z,3.40
2019-03-01T10:00:56.212Z,3.20
2019-03-01T10:03:20.226Z,3.10
2019-03-01T10:05:48.786Z,2.73
2019-03-01T10:08:17.368Z,2.80
2019-03-01T10:10:46.012Z,2.17
2019-03-01T10:13:14.633Z,1.80
2019-03-01T10:15:43.326Z,1.67
2019-03-01T10:18:11.915Z,1.70
2019-03-01T10:20:40.465Z,1.40
2019-03-01T10:23:09.026Z,1.47
2019-03-01T10:25:37.722Z,1.50
2019-03-01T10:28:06.456Z,1.40
2019-03-01T10:30:35.241Z,1.20
2019-03-01T10:33:04.030Z,1.40
2019-03-01T10:35:32.657Z,1.60
2019-03-01T10:38:01.206Z,1.30
2019-03-01T10:40:30.134Z,1.43
2019-03-01T10:42:58.689Z,1.40
2019-03-01T10:45:30.873Z,1.27
2019-03-01T10:47:59.558Z,1.10
2019-03-01T10:50:28.109Z,1.37
2019-03-01T10:52:56.667Z,1.20
2019-03-01T10:55:25.394Z,1.40
2019-03-01T10:57:54.021Z,1.50
2019-03-01T11:00:26.853Z,1.30
2019-03-01T11:02:56.689Z,1.40
2019-03-01T11:05:26.080Z,1.50
2019-03-01T11:07:55.570Z,1.10
2019-03-01T11:10:41.144Z,1.23
2019-03-01T11:13:17.300Z,1.40
2019-03-01T11:15:46.239Z,1.10
2019-03-01T11:18:14.917Z,1.40
2019-03-01T11:20:43.698Z,1.20
2019-03-01T11:23:12.435Z,1.37
2019-03-01T11:25:41.133Z,1.33
2019-03-01T11:28:10.485Z,1.67
2019-03-01T11:30:39.656Z,1.20
2019-03-01T11:33:08.359Z,1.33
2019-03-01T11:35:37.062Z,1.40
2019-03-01T11:38:06.054Z,1.27
2019-03-01T11:40:35.959Z,1.60
2019-03-01T11:43:05.367Z,1.40
2019-03-01T11:45:34.514Z,1.40
2019-03-01T11:48:04.486Z,1.60
2019-03-01T11:50:33.185Z,1.50
2019-03-01T11:53:01.939Z,1.37
2019-03-01T11:55:30.590Z,2.10
2019-03-01T11:57:59.219Z,1.83
2019-03-01T12:00:29.448Z,1.93
2019-03-01T12:02:58.005Z,2.20
2019-03-01T12:05:26.638Z,1.90
2019-03-01T12:07:55.373Z,2.10
2019-03-01T12:10:29.268Z,1.97
2019-03-01T12:12:57.835Z,1.80
2019-03-01T12:15:26.992Z,2.30
2019-03-01T12:17:55.659Z,2.07
2019-03-01T12:20:26.059Z,2.53
2019-03-01T12:22:54.804Z,2.50
2019-03-01T12:25:23.705Z,2.33
2019-03-01T12:27:52.333Z,2.60
2019-03-01T12:30:26.665Z,2.57
2019-03-01T12:32:55.402Z,2.70
2019-03-01T12:35:24.165Z,2.27
2019-03-01T12:37:52.897Z,2.53
2019-03-01T12:40:26.162Z,2.87
2019-03-01T12:42:54.868Z,3.03
2019-03-01T12:45:23.635Z,2.80
2019-03-01T12:47:52.278Z,3.30
2019-03-01T12:50:20.906Z,3.07
2019-03-01T12:52:49.923Z,2.83
2019-03-01T12:55:26.131Z,3.87
2019-03-01T12:57:54.852Z,2.67
2019-03-01T13:00:26.322Z,3.03
2019-03-01T13:02:55.021Z,3.10
2019-03-01T13:05:25.614Z,2.90
2019-03-01T13:07:54.584Z,2.77
2019-03-01T13:10:36.887Z,2.70
2019-03-01T13:13:08.158Z,3.10
2019-03-01T13:15:34.970Z,3.13
2019-03-01T13:18:04.053Z,2.90
2019-03-01T13:20:33.680Z,3.10
2019-03-01T13:23:04.638Z,2.63
2019-03-01T13:25:33.226Z,3.03
2019-03-01T13:28:01.784Z,2.77
2019-03-01T13:30:32.735Z,2.50
2019-03-01T13:33:02.237Z,3.17
2019-03-01T13:35:31.092Z,3.10
2019-03-01T13:37:59.662Z,3.27
2019-03-01T13:40:28.545Z,3.53
2019-03-01T13:42:57.113Z,3.00
2019-03-01T13:45:26.515Z,3.63
2019-03-01T13:47:55.256Z,3.77
2019-03-01T13:50:23.988Z,3.20
2019-03-01T13:52:52.620Z,2.90
2019-03-01T13:55:23.204Z,3.07
2019-03-01T13:57:51.839Z,2.90
2019-03-01T14:00:21.839Z,2.97
2019-03-01T14:02:50.761Z,2.70
2019-03-01T14:05:19.685Z,2.97
2019-03-01T14:07:55.150Z,2.50
2019-03-01T14:10:25.753Z,2.67
2019-03-01T14:12:54.394Z,2.57
2019-03-01T14:15:23.289Z,3.13
2019-03-01T14:17:51.953Z,2.97
2019-03-01T14:20:23.792Z,3.20
2019-03-01T14:22:52.419Z,3.00
2019-03-01T14:25:21.082Z,3.57
2019-03-01T14:27:49.833Z,3.83
2019-03-01T14:30:25.157Z,3.80
2019-03-01T14:32:57.706Z,3.53
2019-03-01T14:35:26.940Z,3.67
2019-03-01T14:37:55.696Z,3.80
2019-03-01T14:40:24.476Z,3.37
2019-03-01T14:42:53.104Z,3.60
2019-03-01T14:45:29.919Z,3.70
2019-03-01T14:47:58.546Z,4.23
2019-03-01T14:50:30.059Z,3.80
2019-03-01T14:52:59.039Z,3.93
2019-03-01T14:55:31.154Z,4.00
2019-03-01T14:58:22.458Z,4.27
2019-03-01T15:00:59.342Z,4.17
2019-03-01T15:03:38.541Z,4.43
2019-03-01T15:06:07.645Z,5.23
2019-03-01T15:08:40.364Z,5.60
2019-03-01T15:11:10.198Z,5.30
2019-03-01T15:13:38.979Z,5.87
2019-03-01T15:16:08.370Z,6.30
2019-03-01T15:18:38.509Z,5.33
2019-03-01T15:21:08.099Z,6.40
2019-03-01T15:23:36.721Z,6.97
2019-03-01T15:26:05.766Z,6.10
2019-03-01T15:28:40.099Z,6.03
2019-03-01T15:31:08.727Z,6.90
2019-03-01T15:33:37.326Z,6.07
2019-03-01T15:36:05.956Z,7.70
2019-03-01T15:38:34.509Z,8.97
2019-03-01T15:41:03.581Z,8.03
2019-03-01T15:43:33.322Z,8.83
2019-03-01T15:46:02.012Z,11.13
2019-03-01T15:48:30.939Z,9.30
2019-03-01T15:51:02.439Z,12.43
2019-03-01T15:53:29.782Z,10.10
2019-03-01T15:55:58.442Z,8.50
2019-03-01T15:58:29.209Z,8.77
2019-03-01T16:00:57.350Z,9.50
2019-03-01T16:03:25.957Z,9.90
2019-03-01T16:05:54.521Z,9.00
2019-03-01T16:08:23.147Z,8.80
2019-03-01T16:10:51.816Z,8.87
2019-03-01T16:13:20.437Z,9.37
2019-03-01T16:15:49.015Z,9.27
2019-03-01T16:18:17.787Z,11.37
2019-03-01T16:20:47.293Z,8.53
2019-03-01T16:23:15.976Z,8.13
2019-03-01T16:25:45.104Z,8.67
2019-03-01T16:28:14.688Z,8.83
2019-03-01T16:30:43.562Z,10.00
2019-03-01T16:33:12.174Z,10.30
2019-03-01T16:35:40.733Z,11.17
2019-03-01T16:38:09.290Z,10.30
2019-03-01T16:40:37.953Z,11.07
2019-03-01T16:43:06.530Z,9.87
2019-03-01T16:45:36.213Z,10.87
2019-03-01T16:48:05.450Z,11.10
2019-03-01T16:50:34.009Z,10.97
2019-03-01T16:53:04.797Z,11.40
2019-03-01T16:55:33.027Z,12.53
2019-03-01T16:58:06.715Z,11.47
2019-03-01T17:00:31.865Z,13.67
2019-03-01T17:03:09.752Z,14.27
2019-03-01T17:05:38.753Z,13.97
2019-03-01T17:08:08.381Z,15.37
2019-03-01T17:10:37.118Z,14.90
2019-03-01T17:13:05.818Z,14.00
2019-03-01T17:15:34.518Z,14.27
2019-03-01T17:18:03.191Z,13.60
2019-03-01T17:20:37.383Z,15.03
2019-03-01T17:23:03.065Z,14.63
2019-03-01T17:25:32.514Z,16.03
2019-03-01T17:28:01.138Z,16.03
2019-03-01T17:30:30.148Z,15.67
2019-03-01T17:32:58.925Z,16.47
2019-03-01T17:35:27.499Z,22.13
2019-03-01T17:37:56.278Z,18.93
2019-03-01T17:40:24.842Z,17.73
2019-03-01T17:42:56.658Z,20.53
2019-03-01T17:45:27.037Z,20.63
2019-03-01T17:47:55.732Z,20.80
2019-03-01T17:50:24.370Z,21.43
2019-03-01T17:52:53.002Z,22.70
2019-03-01T17:55:26.985Z,23.93
2019-03-01T17:57:55.693Z,23.67
2019-03-01T18:00:29.970Z,25.90
2019-03-01T18:02:58.566Z,26.47
2019-03-01T18:05:27.264Z,25.70
2019-03-01T18:07:55.893Z,27.13
2019-03-01T18:10:24.485Z,25.40
2019-03-01T18:12:56.168Z,26.70
2019-03-01T18:15:23.595Z,29.00
2019-03-01T18:17:52.453Z,27.17
2019-03-01T18:20:21.174Z,27.77
2019-03-01T18:22:49.838Z,29.57
2019-03-01T18:25:19.239Z,29.97
2019-03-01T18:27:49.754Z,29.83
2019-03-01T18:30:21.038Z,30.90
2019-03-01T18:32:49.758Z,29.47
2019-03-01T18:35:18.485Z,30.23
2019-03-01T18:37:47.047Z,29.07
2019-03-01T18:40:16.911Z,28.73
2019-03-01T18:42:46.173Z,28.30
2019-03-01T18:45:17.905Z,27.57
2019-03-01T18:47:46.665Z,25.47
2019-03-01T18:50:18.222Z,27.33
2019-03-01T18:52:49.598Z,29.70
2019-03-01T18:55:18.456Z,29.83
2019-03-01T18:57:47.114Z,30.00
2019-03-01T19:00:21.506Z,30.87
2019-03-01T19:02:50.206Z,30.63
2019-03-01T19:05:18.837Z,31.27
2019-03-01T19:07:47.505Z,31.00
2019-03-01T19:10:18.610Z,31.73
2019-03-01T19:12:48.429Z,31.43
2019-03-01T19:15:17.906Z,32.07
2019-03-01T19:17:46.830Z,31.67
2019-03-01T19:20:18.030Z,30.53
2019-03-01T19:22:46.702Z,32.70
2019-03-01T19:25:16.430Z,33.20
2019-03-01T19:27:47.179Z,32.93
2019-03-01T19:30:20.652Z,30.63
2019-03-01T19:32:48.893Z,29.93
2019-03-01T19:35:17.805Z,28.90
2019-03-01T19:37:49.747Z,28.40
2019-03-01T19:40:21.914Z,26.90
2019-03-01T19:42:50.614Z,27.23
2019-03-01T19:45:20.042Z,26.07
2019-03-01T19:47:48.677Z,26.23
2019-03-01T19:50:24.699Z,26.93
2019-03-01T19:52:52.254Z,25.70
2019-03-01T19:55:20.885Z,23.17
2019-03-01T19:57:49.516Z,25.03
2019-03-01T20:00:23.686Z,23.37
2019-03-01T20:02:52.341Z,23.80
2019-03-01T20:05:33.161Z,22.10
2019-03-01T20:08:01.891Z,23.33
2019-03-01T20:10:30.670Z,22.23
2019-03-01T20:12:59.338Z,22.33
2019-03-01T20:15:29.146Z,22.10
2019-03-01T20:17:57.954Z,21.97
2019-03-01T20:20:29.787Z,20.27
2019-03-01T20:22:57.952Z,21.83
2019-03-01T20:25:26.653Z,23.80
2019-03-01T20:27:55.252Z,21.50
2019-03-01T20:30:30.535Z,21.73
2019-03-01T20:32:59.911Z,22.87
2019-03-01T20:35:28.606Z,21.47
2019-03-01T20:38:00.292Z,20.93
2019-03-01T20:40:28.261Z,22.57
2019-03-01T20:42:59.896Z,22.97
2019-03-01T20:45:34.716Z,23.43
2019-03-01T20:48:03.179Z,22.83
2019-03-01T20:50:31.878Z,22.37
2019-03-01T20:53:00.602Z,22.90
2019-03-01T20:55:29.254Z,23.13
2019-03-01T20:57:59.776Z,23.33
2019-03-01T21:00:30.020Z,22.20
2019-03-01T21:02:58.756Z,21.50
2019-03-01T21:05:29.272Z,23.60
2019-03-01T21:07:57.799Z,23.60
2019-03-01T21:10:30.806Z,22.50
2019-03-01T21:12:59.394Z,22.13
2019-03-01T21:15:28.071Z,22.83
2019-03-01T21:17:58.532Z,20.57
2019-03-01T21:20:27.333Z,22.33
2019-03-01T21:22:56.004Z,22.77
2019-03-01T21:25:25.401Z,21.40
2019-03-01T21:27:54.063Z,21.90
2019-03-01T21:30:32.427Z,20.00
2019-03-01T21:33:00.986Z,20.60
2019-03-01T21:35:29.617Z,20.83
2019-03-01T21:37:58.359Z,22.00
2019-03-01T21:40:27.002Z,19.17
2019-03-01T21:42:57.340Z,18.40
2019-03-01T21:45:26.188Z,20.27
2019-03-01T21:47:54.825Z,20.40
2019-03-01T21:50:23.642Z,20.10
2019-03-01T21:52:52.305Z,20.03
2019-03-01T21:55:28.609Z,20.37
2019-03-01T21:57:56.385Z,19.73
2019-03-01T22:00:29.740Z,20.30
2019-03-01T22:02:57.402Z,18.63
2019-03-01T22:05:26.029Z,23.23
2019-03-01T22:07:54.705Z,20.23
2019-03-01T22:10:23.335Z,17.93
2019-03-01T22:12:52.036Z,18.77
2019-03-01T22:15:27.785Z,18.40
2019-03-01T22:17:56.806Z,18.73
2019-03-01T22:20:25.619Z,19.33
2019-03-01T22:22:54.274Z,17.37
2019-03-01T22:25:22.901Z,19.77
2019-03-01T22:27:51.606Z,19.13
2019-03-01T22:30:30.661Z,19.33
2019-03-01T22:32:59.218Z,18.13
2019-03-01T22:35:27.785Z,19.43
2019-03-01T22:37:56.380Z,18.20
2019-03-01T22:40:28.013Z,17.83
2019-03-01T22:42:55.310Z,18.17
2019-03-01T22:45:24.144Z,17.93
2019-03-01T22:47:52.782Z,18.90
2019-03-01T22:50:21.517Z,17.43
2019-03-01T22:52:50.359Z,18.70
2019-03-01T22:55:19.862Z,17.90
2019-03-01T22:57:48.522Z,18.60
2019-03-01T23:00:28.231Z,18.27
2019-03-01T23:02:57.205Z,17.40
2019-03-01T23:05:25.845Z,17.83
2019-03-01T23:07:56.877Z,17.10
2019-03-01T23:10:24.786Z,17.77
2019-03-01T23:12:53.418Z,17.23
2019-03-01T23:15:22.153Z,17.97
2019-03-01T23:17:50.816Z,17.13
2019-03-01T23:20:19.452Z,16.40
2019-03-01T23:22:48.157Z,17.03
2019-03-01T23:25:16.790Z,16.03
2019-03-01T23:27:45.354Z,17.27
2019-03-01T23:30:13.953Z,17.63
2019-03-01T23:32:42.528Z,18.43
2019-03-01T23:35:11.234Z,17.47
2019-03-01T23:37:39.949Z,17.63
2019-03-01T23:40:08.836Z,18.43
2019-03-01T23:42:37.615Z,17.23
2019-03-01T23:45:13.660Z,18.60
2019-03-01T23:47:40.970Z,16.70
2019-03-01T23:50:10.474Z,17.90
2019-03-01T23:52:39.311Z,17.67
2019-03-01T23:55:08.513Z,16.17
2019-03-01T23:57:37.952Z,16.47
